createdAt,value
2022-10-19T00:01:18.596Z,101846.23
2022-10-19T00:06:27.154Z,101858.64
2022-10-19T00:09:04.723Z,101864.44
2022-10-19T00:11:34.979Z,101856.88
2022-10-19T00:14:04.369Z,101855.59
2022-10-19T00:16:36.042Z,101854.35
2022-10-19T00:19:11.896Z,101852.56
2022-10-19T00:21:41.023Z,101845.73
2022-10-19T00:24:09.516Z,101842.11
2022-10-19T00:26:38.228Z,101839.63
2022-10-19T00:29:07.462Z,101834.95
2022-10-19T00:31:35.780Z,101825.93
2022-10-19T00:34:04.185Z,101822.94
2022-10-19T00:36:36.013Z,101824.52
2022-10-19T00:39:07.377Z,101827.66
2022-10-19T00:41:37.145Z,101822.95
2022-10-19T00:44:27.124Z,101818.11
2022-10-19T00:47:00.003Z,101816.40
2022-10-19T00:49:36.081Z,101812.98
2022-10-19T00:52:10.824Z,101810.20
2022-10-19T00:54:41.431Z,101814.15
2022-10-19T00:57:11.153Z,101819.61
2022-10-19T00:59:41.844Z,101824.08
2022-10-19T01:02:10.014Z,101828.18
2022-10-19T01:04:42.484Z,101821.66
2022-10-19T01:07:11.292Z,101818.53
2022-10-19T01:09:39.360Z,101817.40
2022-10-19T01:12:29.180Z,101815.73
2022-10-19T01:15:21.147Z,101814.55
2022-10-19T01:18:05.300Z,101810.46
2022-10-19T01:20:50.124Z,101808.02
2022-10-19T01:23:21.116Z,101804.91
2022-10-19T01:26:04.434Z,101802.83
2022-10-19T01:28:57.853Z,101806.99
2022-10-19T01:31:38.001Z,101804.81
2022-10-19T01:34:19.886Z,101789.84
2022-10-19T01:37:26.393Z,101800.09
2022-10-19T01:40:06.664Z,101805.17
2022-10-19T01:42:45.366Z,101803.90
2022-10-19T01:45:22.984Z,101804.84
2022-10-19T01:48:00.127Z,101801.09
2022-10-19T01:50:46.580Z,101794.80
2022-10-19T01:53:18.041Z,101794.84
2022-10-19T01:55:50.644Z,101793.61
2022-10-19T01:58:27.624Z,101792.39
2022-10-19T02:00:59.696Z,101789.16
2022-10-19T02:03:28.889Z,101774.42
2022-10-19T02:05:58.503Z,101784.16
2022-10-19T02:08:35.036Z,101779.69
2022-10-19T02:11:04.273Z,101773.65
2022-10-19T02:13:33.452Z,101772.99
2022-10-19T02:16:05.594Z,101770.30
2022-10-19T02:18:39.673Z,101769.48
2022-10-19T02:21:07.917Z,101773.83
2022-10-19T02:23:36.423Z,101777.60
2022-10-19T02:26:04.922Z,101776.98
2022-10-19T02:28:33.389Z,101763.96
2022-10-19T02:31:02.043Z,101770.48
2022-10-19T02:33:31.187Z,101782.03
2022-10-19T02:36:00.385Z,101785.02
2022-10-19T02:38:28.940Z,101771.51
2022-10-19T02:41:16.928Z,101782.98
2022-10-19T02:43:49.707Z,101780.66
2022-10-19T02:46:23.399Z,101777.13
2022-10-19T02:48:52.003Z,101772.94
2022-10-19T02:51:32.762Z,101772.48
2022-10-19T02:54:04.186Z,101755.35
2022-10-19T02:56:35.267Z,101766.29
2022-10-19T02:59:05.084Z,101768.10
2022-10-19T03:01:33.120Z,101770.98
2022-10-19T03:04:01.203Z,101767.98
2022-10-19T03:06:32.029Z,101769.52
2022-10-19T03:09:00.062Z,101773.25
2022-10-19T03:11:28.132Z,101761.22
2022-10-19T03:13:56.192Z,101774.50
2022-10-19T03:16:24.291Z,101777.48
2022-10-19T03:18:52.589Z,101773.52
2022-10-19T03:21:20.870Z,101767.52
2022-10-19T03:23:48.907Z,101771.00
2022-10-19T03:26:18.344Z,101769.27
2022-10-19T03:28:47.457Z,101770.67
2022-10-19T03:31:15.448Z,101772.30
2022-10-19T03:33:43.455Z,101760.34
2022-10-19T03:36:26.364Z,101770.42
2022-10-19T03:38:56.824Z,101758.17
2022-10-19T03:41:27.570Z,101766.63
2022-10-19T03:43:56.486Z,101767.05
2022-10-19T03:46:26.689Z,101761.16
2022-10-19T03:48:55.060Z,101763.55
2022-10-19T03:51:25.271Z,101772.61
2022-10-19T03:53:59.879Z,101776.06
2022-10-19T03:56:29.953Z,101776.15
2022-10-19T03:59:00.342Z,101776.34
2022-10-19T04:01:30.465Z,101789.69
2022-10-19T04:04:03.407Z,101787.89
2022-10-19T04:06:37.056Z,101786.48
2022-10-19T04:09:07.159Z,101786.42
2022-10-19T04:11:35.981Z,101794.08
2022-10-19T04:14:04.951Z,101800.38
2022-10-19T04:16:33.872Z,101802.05
2022-10-19T04:19:01.988Z,101804.00
2022-10-19T04:21:38.357Z,101801.59
2022-10-19T04:24:15.539Z,101799.41
2022-10-19T04:26:52.487Z,101805.30
2022-10-19T04:29:25.061Z,101805.61
2022-10-19T04:31:56.069Z,101804.16
2022-10-19T04:34:24.501Z,101805.55
2022-10-19T04:36:54.210Z,101811.45
2022-10-19T04:39:22.329Z,101820.73
2022-10-19T04:41:50.974Z,101829.16
2022-10-19T04:44:19.203Z,101828.64
2022-10-19T04:46:47.358Z,101827.67
2022-10-19T04:49:17.967Z,101828.15
2022-10-19T04:51:48.253Z,101825.90
2022-10-19T04:54:17.362Z,101830.09
2022-10-19T04:56:45.362Z,101826.16
2022-10-19T04:59:13.434Z,101826.88
2022-10-19T05:01:46.542Z,101827.45
2022-10-19T05:04:15.557Z,101828.70
2022-10-19T05:06:43.705Z,101830.70
2022-10-19T05:09:11.872Z,101835.91
2022-10-19T05:11:39.994Z,101832.20
2022-10-19T05:14:08.177Z,101837.25
2022-10-19T05:16:36.276Z,101840.34
2022-10-19T05:19:04.367Z,101843.42
2022-10-19T05:21:33.203Z,101843.16
2022-10-19T05:24:01.337Z,101844.01
2022-10-19T05:26:30.371Z,101849.89
2022-10-19T05:29:04.635Z,101853.84
2022-10-19T05:31:35.758Z,101856.07
2022-10-19T05:34:04.494Z,101856.87
2022-10-19T05:36:37.766Z,101857.66
2022-10-19T05:39:15.975Z,101861.30
2022-10-19T05:41:45.781Z,101864.50
2022-10-19T05:44:16.752Z,101863.48
2022-10-19T05:46:45.469Z,101866.55
2022-10-19T05:49:15.293Z,101869.67
2022-10-19T05:51:44.576Z,101873.64
2022-10-19T05:54:14.243Z,101874.89
2022-10-19T05:56:43.273Z,101878.35
2022-10-19T05:59:16.377Z,101879.23
2022-10-19T06:01:45.324Z,101868.75
2022-10-19T06:04:15.224Z,101885.75
2022-10-19T06:06:43.722Z,101883.90
2022-10-19T06:09:12.645Z,101885.27
2022-10-19T06:11:42.640Z,101890.63
2022-10-19T06:14:15.877Z,101897.78
2022-10-19T06:16:46.265Z,101897.70
2022-10-19T06:19:14.934Z,101896.39
2022-10-19T06:21:45.835Z,101901.36
2022-10-19T06:24:15.011Z,101906.52
2022-10-19T06:26:43.308Z,101909.84
2022-10-19T06:29:11.857Z,101916.84
2022-10-19T06:31:40.224Z,101908.44
2022-10-19T06:34:10.957Z,101924.31
2022-10-19T06:36:39.298Z,101927.81
2022-10-19T06:39:07.572Z,101929.86
2022-10-19T06:41:35.785Z,101937.15
2022-10-19T06:44:19.173Z,101944.86
2022-10-19T06:46:47.522Z,101950.01
2022-10-19T06:49:15.868Z,101958.10
2022-10-19T06:51:44.237Z,101963.38
2022-10-19T06:54:12.471Z,101967.44
2022-10-19T06:56:40.811Z,101973.21
2022-10-19T06:59:09.155Z,101975.11
2022-10-19T07:01:37.401Z,101979.19
2022-10-19T07:04:05.817Z,101983.31
2022-10-19T07:06:34.015Z,101985.71
2022-10-19T07:09:02.972Z,101992.17
2022-10-19T07:11:31.433Z,101994.55
2022-10-19T07:13:59.717Z,102002.27
2022-10-19T07:16:27.905Z,102000.32
2022-10-19T07:18:56.092Z,102002.05
2022-10-19T07:21:24.489Z,102008.77
2022-10-19T07:23:52.715Z,102013.06
2022-10-19T07:26:26.899Z,102014.83
2022-10-19T07:28:58.212Z,102010.16
2022-10-19T07:31:29.198Z,102014.87
2022-10-19T07:34:01.069Z,102018.11
2022-10-19T07:36:31.802Z,102021.17
2022-10-19T07:39:01.978Z,102029.94
2022-10-19T07:41:30.158Z,102030.71
2022-10-19T07:43:58.438Z,102035.48
2022-10-19T07:46:33.928Z,102038.11
2022-10-19T07:49:03.813Z,102045.18
2022-10-19T07:51:32.130Z,102042.71
2022-10-19T07:54:00.537Z,102043.08
2022-10-19T07:56:29.136Z,102018.48
2022-10-19T07:58:59.249Z,102040.06
2022-10-19T08:01:30.698Z,102049.37
2022-10-19T08:06:49.738Z,102059.38
2022-10-19T08:09:40.070Z,102056.98
2022-10-19T08:12:07.182Z,102053.54
2022-10-19T08:14:35.591Z,102058.31
2022-10-19T08:17:04.237Z,102057.67
2022-10-19T08:19:32.590Z,102058.88
2022-10-19T08:22:00.830Z,102052.73
2022-10-19T08:24:29.177Z,102062.86
2022-10-19T08:26:57.577Z,102060.92
2022-10-19T08:29:27.841Z,102067.08
2022-10-19T08:31:59.334Z,102071.09
2022-10-19T08:34:27.394Z,102070.21
2022-10-19T08:36:55.471Z,102074.05
2022-10-19T08:39:23.634Z,102080.30
2022-10-19T08:42:15.238Z,102085.71
2022-10-19T08:45:14.065Z,102099.75
2022-10-19T08:48:00.497Z,102111.46
2022-10-19T08:50:41.072Z,102114.66
2022-10-19T08:53:43.998Z,102116.19
2022-10-19T08:56:51.555Z,102118.60
2022-10-19T08:59:42.899Z,102120.73
2022-10-19T09:02:15.735Z,102120.76
2022-10-19T09:04:50.526Z,102119.24
2022-10-19T09:07:45.568Z,102119.90
2022-10-19T09:10:13.575Z,102116.15
2022-10-19T09:13:02.763Z,102128.19
2022-10-19T09:15:44.365Z,102124.63
2022-10-19T09:18:25.498Z,102129.91
2022-10-19T09:21:21.551Z,102149.20
2022-10-19T09:24:16.626Z,102164.77
2022-10-19T09:26:53.490Z,102169.61
2022-10-19T09:29:35.430Z,102163.98
2022-10-19T09:32:06.818Z,102163.11
2022-10-19T09:34:51.254Z,102166.73
2022-10-19T09:37:26.007Z,102155.36
2022-10-19T09:39:56.295Z,102165.92
2022-10-19T09:42:34.354Z,102163.16
2022-10-19T09:45:20.083Z,102166.11
2022-10-19T09:47:49.172Z,102169.34
2022-10-19T09:50:24.482Z,102169.08
2022-10-19T09:52:55.499Z,102184.04
2022-10-19T09:55:36.091Z,102169.12
2022-10-19T09:58:15.383Z,102188.29
2022-10-19T10:00:51.753Z,102196.64
2022-10-19T10:03:29.108Z,102200.85
2022-10-19T10:06:06.698Z,102200.83
2022-10-19T10:08:38.753Z,102198.75
2022-10-19T10:11:13.294Z,102198.33
2022-10-19T10:13:49.523Z,102198.02
2022-10-19T10:16:21.166Z,102195.46
2022-10-19T10:19:06.433Z,102197.66
2022-10-19T10:21:55.852Z,102198.82
2022-10-19T10:24:30.419Z,102193.84
2022-10-19T10:27:01.070Z,102190.69
2022-10-19T10:29:29.017Z,102191.05
2022-10-19T10:32:15.246Z,102185.83
2022-10-19T10:34:58.548Z,102193.60
2022-10-19T10:37:41.868Z,102192.98
2022-10-19T10:40:39.539Z,102212.79
2022-10-19T10:43:14.202Z,102217.02
2022-10-19T10:45:49.452Z,102225.63
2022-10-19T10:48:36.306Z,102224.96
2022-10-19T10:51:10.675Z,102228.01
2022-10-19T10:53:45.055Z,102224.79
2022-10-19T10:56:26.357Z,102226.88
2022-10-19T10:59:14.799Z,102220.64
2022-10-19T11:02:00.324Z,102219.03
2022-10-19T11:04:35.597Z,102225.41
2022-10-19T11:07:18.350Z,102219.37
2022-10-19T11:09:54.717Z,102221.48
2022-10-19T11:12:37.382Z,102217.23
2022-10-19T11:15:25.776Z,102219.26
2022-10-19T11:18:26.366Z,102225.36
2022-10-19T11:21:15.941Z,102233.60
2022-10-19T11:24:16.329Z,102234.08
2022-10-19T11:26:47.582Z,102237.64
2022-10-19T11:29:32.094Z,102236.25
2022-10-19T11:32:00.806Z,102226.45
2022-10-19T11:34:45.060Z,102243.02
2022-10-19T11:37:16.081Z,102240.44
2022-10-19T11:40:06.053Z,102241.00
2022-10-19T11:42:41.282Z,102235.71
2022-10-19T11:45:20.725Z,102232.77
2022-10-19T11:48:20.851Z,102240.90
2022-10-19T11:51:17.313Z,102250.48
2022-10-19T11:53:56.185Z,102252.83
2022-10-19T11:57:09.401Z,102258.96
2022-10-19T12:00:13.922Z,102259.43
2022-10-19T12:03:17.637Z,102258.52
2022-10-19T12:06:09.476Z,102259.30
2022-10-19T12:08:37.493Z,102258.79
2022-10-19T12:11:47.958Z,102245.87
2022-10-19T12:14:25.379Z,102264.31
2022-10-19T12:17:02.491Z,102260.65
2022-10-19T12:19:39.467Z,102270.23
2022-10-19T12:22:15.462Z,102268.48
2022-10-19T12:24:43.652Z,102274.42
2022-10-19T12:27:16.312Z,102265.69
2022-10-19T12:29:48.657Z,102270.87
2022-10-19T12:32:23.127Z,102266.10
2022-10-19T12:34:57.983Z,102266.14
2022-10-19T12:37:39.642Z,102259.09
2022-10-19T12:40:24.606Z,102273.30
2022-10-19T12:43:46.429Z,102269.95
2022-10-19T12:46:41.804Z,102269.67
2022-10-19T12:49:45.305Z,102266.20
2022-10-19T12:52:15.250Z,102275.77
2022-10-19T12:54:44.545Z,102265.62
2022-10-19T12:57:28.031Z,102262.10
2022-10-19T13:00:01.882Z,102262.98
2022-10-19T13:02:37.051Z,102265.31
2022-10-19T13:05:05.822Z,102274.44
2022-10-19T13:07:36.629Z,102283.34
2022-10-19T13:10:09.746Z,102291.30
2022-10-19T13:12:46.889Z,102298.58
2022-10-19T13:15:33.581Z,102300.52
2022-10-19T13:18:16.934Z,102304.44
2022-10-19T13:20:53.539Z,102308.91
2022-10-19T13:23:21.533Z,102305.00
2022-10-19T13:26:23.925Z,102314.08
2022-10-19T13:28:58.125Z,102316.36
2022-10-19T13:31:31.920Z,102311.95
2022-10-19T13:34:00.569Z,102306.54
2022-10-19T13:36:28.954Z,102304.98
2022-10-19T13:39:00.294Z,102305.50
2022-10-19T13:41:34.577Z,102316.17
2022-10-19T13:44:18.447Z,102316.33
2022-10-19T13:47:20.924Z,102309.37
2022-10-19T13:50:15.533Z,102319.58
2022-10-19T13:52:48.945Z,102331.70
2022-10-19T13:55:55.702Z,102333.88
2022-10-19T13:58:39.207Z,102335.02
2022-10-19T14:01:32.769Z,102333.55
2022-10-19T14:04:29.600Z,102337.48
2022-10-19T14:07:17.405Z,102339.41
2022-10-19T14:10:17.832Z,102340.52
2022-10-19T14:12:47.109Z,102342.21
2022-10-19T14:15:18.331Z,102340.89
2022-10-19T14:17:46.614Z,102344.64
2022-10-19T14:20:33.674Z,102343.15
2022-10-19T14:23:20.373Z,102332.66
2022-10-19T14:25:55.134Z,102345.52
2022-10-19T14:28:23.877Z,102339.63
2022-10-19T14:31:04.073Z,102342.37
2022-10-19T14:33:35.613Z,102337.24
2022-10-19T14:36:05.638Z,102338.33
2022-10-19T14:38:40.417Z,102337.23
2022-10-19T14:41:19.929Z,102334.31
2022-10-19T14:43:48.267Z,102336.91
2022-10-19T14:46:16.924Z,102342.09
2022-10-19T14:48:48.906Z,102346.30
2022-10-19T14:51:22.960Z,102349.82
2022-10-19T14:53:57.163Z,102355.48
2022-10-19T14:56:31.843Z,102361.36
2022-10-19T14:59:05.024Z,102364.09
2022-10-19T15:01:34.737Z,102367.60
2022-10-19T15:04:03.376Z,102367.30
2022-10-19T15:06:42.481Z,102370.64
2022-10-19T15:09:37.048Z,102365.91
2022-10-19T15:12:14.595Z,102385.80
2022-10-19T15:14:43.833Z,102382.63
2022-10-19T15:17:33.224Z,102382.59
2022-10-19T15:20:01.996Z,102378.58
2022-10-19T15:22:33.249Z,102385.08
2022-10-19T15:25:25.036Z,102386.69
2022-10-19T15:27:54.397Z,102383.71
2022-10-19T15:30:28.927Z,102388.90
2022-10-19T15:32:57.172Z,102390.63
2022-10-19T15:35:25.503Z,102391.70
2022-10-19T15:38:05.377Z,102391.23
2022-10-19T15:40:37.220Z,102392.86
2022-10-19T15:43:44.300Z,102397.12
2022-10-19T15:46:12.439Z,102393.79
2022-10-19T15:48:40.799Z,102395.62
2022-10-19T15:51:27.379Z,102396.88
2022-10-19T15:53:58.285Z,102398.61
2022-10-19T15:56:30.668Z,102403.66
2022-10-19T15:59:01.613Z,102399.61
2022-10-19T16:01:32.992Z,102397.73
2022-10-19T16:04:01.839Z,102399.62
2022-10-19T16:06:33.243Z,102401.17
2022-10-19T16:09:02.187Z,102379.77
2022-10-19T16:11:32.520Z,102404.77
2022-10-19T16:14:01.192Z,102406.02
2022-10-19T16:16:32.367Z,102407.16
2022-10-19T16:19:01.242Z,102411.77
2022-10-19T16:21:33.540Z,102411.86
2022-10-19T16:24:02.378Z,102414.52
2022-10-19T16:26:32.419Z,102413.62
2022-10-19T16:29:01.987Z,102418.59
2022-10-19T16:31:31.630Z,102413.81
2022-10-19T16:34:00.013Z,102421.67
2022-10-19T16:36:28.324Z,102420.34
2022-10-19T16:38:56.629Z,102426.15
2022-10-19T16:41:24.937Z,102427.34
2022-10-19T16:43:57.294Z,102432.84
2022-10-19T16:46:27.458Z,102436.63
2022-10-19T16:48:55.931Z,102438.21
2022-10-19T16:51:32.198Z,102438.11
2022-10-19T16:54:00.785Z,102425.33
2022-10-19T16:56:30.904Z,102442.10
2022-10-19T16:59:02.782Z,102448.63
2022-10-19T17:01:33.065Z,102444.65
2022-10-19T17:04:02.235Z,102447.54
2022-10-19T17:06:30.530Z,102450.89
2022-10-19T17:09:30.256Z,102452.71
2022-10-19T17:11:49.141Z,102456.73
2022-10-19T17:14:17.567Z,102461.54
2022-10-19T17:16:46.293Z,102357.60
2022-10-19T17:19:14.492Z,102461.21
2022-10-19T17:21:42.735Z,102464.56
2022-10-19T17:24:22.038Z,102465.62
2022-10-19T17:26:52.149Z,102469.40
2022-10-19T17:29:22.577Z,102470.52
2022-10-19T17:31:51.039Z,102452.67
2022-10-19T17:34:19.348Z,102472.02
2022-10-19T17:36:48.269Z,102477.92
2022-10-19T17:39:25.728Z,102474.35
2022-10-19T17:42:02.278Z,102469.98
2022-10-19T17:44:31.769Z,102484.16
2022-10-19T17:47:00.894Z,102489.06
2022-10-19T17:49:30.260Z,102488.65
2022-10-19T17:51:58.952Z,102489.23
2022-10-19T17:54:27.320Z,102491.58
2022-10-19T17:56:55.953Z,102489.75
2022-10-19T17:59:34.555Z,102488.71
2022-10-19T18:02:04.990Z,102488.71
2022-10-19T18:04:33.302Z,102491.10
2022-10-19T18:07:02.325Z,102491.66
2022-10-19T18:09:30.845Z,102478.16
2022-10-19T18:12:02.291Z,102496.33
2022-10-19T18:14:32.902Z,102500.48
2022-10-19T18:17:01.112Z,102500.31
2022-10-19T18:19:29.266Z,102502.17
2022-10-19T18:21:57.745Z,102505.55
2022-10-19T18:24:26.593Z,102508.38
2022-10-19T18:26:54.969Z,102508.77
2022-10-19T18:29:26.077Z,102508.05
2022-10-19T18:31:55.751Z,102513.41
2022-10-19T18:34:26.506Z,102509.29
2022-10-19T18:36:55.124Z,102512.77
2022-10-19T18:39:23.850Z,102515.71
2022-10-19T18:41:56.468Z,102511.77
2022-10-19T18:44:26.949Z,102515.98
2022-10-19T18:46:57.803Z,102511.98
2022-10-19T18:49:26.116Z,102516.22
2022-10-19T18:51:55.857Z,102516.77
2022-10-19T18:54:26.580Z,102514.05
2022-10-19T18:56:55.522Z,102517.91
2022-10-19T18:59:24.119Z,102516.78
2022-10-19T19:01:52.746Z,102527.89
2022-10-19T19:04:21.061Z,102523.91
2022-10-19T19:06:49.395Z,102521.91
2022-10-19T19:09:19.033Z,102527.09
2022-10-19T19:11:48.029Z,102519.77
2022-10-19T19:14:21.181Z,102526.26
2022-10-19T19:16:49.834Z,102532.41
2022-10-19T19:19:19.779Z,102529.75
2022-10-19T19:21:49.161Z,102532.30
2022-10-19T19:24:22.280Z,102533.93
2022-10-19T19:26:54.079Z,102541.12
2022-10-19T19:29:22.781Z,102543.15
2022-10-19T19:31:51.799Z,102535.32
2022-10-19T19:34:20.644Z,102544.04
2022-10-19T19:36:52.306Z,102545.92
2022-10-19T19:39:21.496Z,102536.57
2022-10-19T19:41:50.612Z,102554.30
2022-10-19T19:44:19.455Z,102559.67
2022-10-19T19:46:48.147Z,102559.98
2022-10-19T19:49:16.622Z,102561.84
2022-10-19T19:51:44.969Z,102559.71
2022-10-19T19:54:16.202Z,102560.61
2022-10-19T19:56:44.394Z,102556.70
2022-10-19T19:59:13.536Z,102560.77
2022-10-19T20:01:42.057Z,102562.61
2022-10-19T20:04:10.583Z,102563.72
2022-10-19T20:06:40.487Z,102563.35
2022-10-19T20:09:10.852Z,102564.09
2022-10-19T20:11:42.572Z,102568.55
2022-10-19T20:14:12.148Z,102576.90
2022-10-19T20:16:40.888Z,102577.04
2022-10-19T20:19:13.936Z,102585.27
2022-10-19T20:21:42.894Z,102592.42
2022-10-19T20:24:11.206Z,102594.52
2022-10-19T20:26:39.549Z,102602.58
2022-10-19T20:29:08.255Z,102597.91
2022-10-19T20:31:40.429Z,102597.77
2022-10-19T20:34:14.236Z,102602.53
2022-10-19T20:36:42.762Z,102589.83
2022-10-19T20:39:11.224Z,102588.91
2022-10-19T20:41:39.555Z,102603.81
2022-10-19T20:44:07.824Z,102602.98
2022-10-19T20:46:37.273Z,102602.36
2022-10-19T20:49:05.894Z,102603.03
2022-10-19T20:51:37.018Z,102607.69
2022-10-19T20:54:08.430Z,102601.66
2022-10-19T20:56:39.385Z,102603.68
2022-10-19T20:59:12.664Z,102604.89
2022-10-19T21:01:42.251Z,102602.31
2022-10-19T21:04:13.356Z,102596.05
2022-10-19T21:06:44.358Z,102596.71
2022-10-19T21:09:15.920Z,102598.55
2022-10-19T21:11:45.677Z,102586.91
2022-10-19T21:14:17.330Z,102599.23
2022-10-19T21:16:45.649Z,102602.90
2022-10-19T21:19:19.208Z,102598.74
2022-10-19T21:21:50.896Z,102599.13
2022-10-19T21:24:21.379Z,102597.67
2022-10-19T21:26:49.709Z,102598.41
2022-10-19T21:29:18.933Z,102586.10
2022-10-19T21:31:49.731Z,102597.14
2022-10-19T21:34:23.891Z,102598.87
2022-10-19T21:36:53.324Z,102599.66
2022-10-19T21:39:22.468Z,102602.48
2022-10-19T21:41:51.382Z,102603.93
2022-10-19T21:44:22.449Z,102607.48
2022-10-19T21:46:50.841Z,102600.40
2022-10-19T21:49:19.290Z,102613.09
2022-10-19T21:51:50.821Z,102608.96
2022-10-19T21:54:22.123Z,102612.27
2022-10-19T21:56:51.116Z,102610.80
2022-10-19T21:59:19.457Z,102609.15
2022-10-19T22:01:47.964Z,102612.88
2022-10-19T22:04:18.005Z,102612.20
2022-10-19T22:06:46.164Z,102612.58
2022-10-19T22:09:17.055Z,102612.32
2022-10-19T22:11:45.695Z,102609.55
2022-10-19T22:14:15.516Z,102597.84
2022-10-19T22:16:44.385Z,102615.85
2022-10-19T22:19:12.839Z,102617.65
2022-10-19T22:21:41.325Z,102616.99
2022-10-19T22:24:13.741Z,102617.23
2022-10-19T22:26:45.226Z,102618.04
2022-10-19T22:29:13.912Z,102620.16
2022-10-19T22:31:42.172Z,102620.20
2022-10-19T22:34:14.257Z,102626.70
2022-10-19T22:36:42.992Z,102624.55
2022-10-19T22:39:12.034Z,102628.34
2022-10-19T22:41:40.284Z,102630.19
2022-10-19T22:44:08.918Z,102631.95
2022-10-19T22:46:37.353Z,102630.32
2022-10-19T22:49:05.481Z,102628.56
2022-10-19T22:51:33.656Z,102630.23
2022-10-19T22:54:01.855Z,102589.73
2022-10-19T22:56:30.211Z,102632.48
2022-10-19T22:59:00.251Z,102630.16
2022-10-19T23:01:28.741Z,102629.30
2022-10-19T23:03:56.979Z,102635.40
2022-10-19T23:06:25.740Z,102635.64
2022-10-19T23:08:54.649Z,102637.21
2022-10-19T23:11:23.657Z,102639.13
2022-10-19T23:13:52.160Z,102640.11
2022-10-19T23:16:20.632Z,102638.00
2022-10-19T23:18:48.818Z,102640.24
2022-10-19T23:21:17.074Z,102642.23
2022-10-19T23:23:45.439Z,102637.88
2022-10-19T23:26:14.966Z,102641.23
2022-10-19T23:28:45.688Z,102632.80
2022-10-19T23:31:24.599Z,102614.70
2022-10-19T23:33:53.784Z,102616.35
2022-10-19T23:36:25.323Z,102630.82
2022-10-19T23:38:54.630Z,102636.87
2022-10-19T23:41:23.210Z,102637.48
2022-10-19T23:43:51.612Z,102643.09
2022-10-19T23:46:19.945Z,102643.05
2022-10-19T23:48:48.189Z,102646.92
2022-10-19T23:51:19.452Z,102645.52
2022-10-19T23:53:50.633Z,102642.60
2022-10-19T23:56:20.641Z,102647.10
2022-10-19T23:58:49.665Z,102628.73
